Aérodrome :
LOGIN :

S'inscrire | Disclaimer

   EN    FR    IT 

 










Légende :    VFR   VFR Marginal   IFR   IFR Intensif   IFR Très Intensif
Visi : 
Plafond : 
>= 8 km
>= 3000ft
5 à 8 km
1000 à 3000 ft
1500m à 5 km
500 à 1000 ft
800 à 1500m
200 à 500 ft
< 800m
< 200 ft
Symboles :   Orages  Brouillard  Fortes neiges  Fortes précipitations  Vent > 20 kt
SIGMETs :   Divers  Orages  Givrage  Turbulence  Onde Orograph.  Cendres Volcan.







- Altitude de l'aérodrome : 82 ft
- Code IATA : QIE
- Voir les cartes d'approche


LFMI - Istres

DERNIER METAR :
  • 211000Z AUTO 33005KT 290V060 CAVOK 28/07 Q1019 NOSIG

METARs EXPIRÉS :
  • 210930Z AUTO 35006KT 320V050 CAVOK 28/07 Q1019 NOSIG
  • 210900Z AUTO 35007KT CAVOK 25/07 Q1019 NOSIG
  • 210830Z AUTO 36007KT CAVOK 24/07 Q1019 NOSIG
  • 210800Z AUTO 03005KT 350V080 CAVOK 23/07 Q1019 NOSIG
  • 210730Z AUTO 36010KT //// R15///// R33///// // NSC 22/07 Q1020

TAF TAF LFMI
Valide du 21 à 09h jusqu'au 22 à 09h UTC


210800Z 2109/2209 VRB05KT CAVOK
TEMPO 2112/2121 24015KT
Pas de NOTAMs connus pour ce terrain.



MET'MAP, la Météo Aéronautique d'un coup d'oeil ! - Copyright ORBIFLY Décembre 2007 - Disclaimer

ORBIFLY MET'MAP TEAM :

Programmation & Développement : Alexandra Zaïnal
Conception & Développement : Baudouin d'Aumeries
Co-Programmation & Développement : Marc-Olivier Méhu
Soutien technique & logistique : Manuel Goepfert

Contact : metmap@orbifly.com




SOURCES & CREDITS :

   NOAA